Time;durP1;ratioP1;P1;durP2;ratioP2;P2;SDS_P1;SDS_P2;PMS_P1;PMS_P2;Temp;Humidity;BMP_temperature;BMP_pressure;BME280_temperature;BME280_humidity;BME280_pressure;Samples;Min_cycle;Max_cycle;Signal;HPM_P1;HPM_P2
2023/05/13 00:02:17;;;;;;;13.57;12.02;;;14.50;99.90;;;;;;5046807;28;20253;-72
2023/05/13 00:04:43;;;;;;;15.13;12.10;;;14.50;99.90;;;;;;5051180;28;20245;-72
2023/05/13 00:07:08;;;;;;;13.20;11.73;;;14.50;99.90;;;;;;5045511;28;20265;-73
2023/05/13 00:09:34;;;;;;;15.75;11.85;;;14.50;99.90;;;;;;5049690;28;20209;-72
2023/05/13 00:12:02;;;;;;;16.95;12.30;;;14.50;99.90;;;;;;5047268;28;20190;-72
2023/05/13 00:14:28;;;;;;;16.30;11.98;;;14.40;99.90;;;;;;5050252;28;20189;-72
2023/05/13 00:16:53;;;;;;;13.68;12.25;;;14.50;99.90;;;;;;5052046;28;20182;-72
2023/05/13 00:19:19;;;;;;;16.42;12.85;;;14.50;99.90;;;;;;5044780;28;20222;-72
2023/05/13 00:21:45;;;;;;;15.73;12.98;;;14.50;99.90;;;;;;5047110;28;20235;-72
2023/05/13 00:24:11;;;;;;;19.65;14.40;;;14.50;99.90;;;;;;5043702;28;20241;-72
2023/05/13 00:26:37;;;;;;;17.40;14.00;;;14.50;99.90;;;;;;5051791;28;20186;-72
2023/05/13 00:29:02;;;;;;;17.98;13.15;;;14.60;99.90;;;;;;5050322;28;20273;-73
2023/05/13 00:31:28;;;;;;;17.08;13.32;;;14.60;99.90;;;;;;5052737;28;20182;-72
2023/05/13 00:33:53;;;;;;;17.48;13.20;;;14.70;99.90;;;;;;5042223;28;20277;-72
2023/05/13 00:36:19;;;;;;;15.98;12.80;;;14.70;99.90;;;;;;5054644;28;20198;-72
2023/05/13 00:38:45;;;;;;;17.80;13.35;;;14.60;99.90;;;;;;5053135;28;20185;-75
2023/05/13 00:41:11;;;;;;;16.35;13.38;;;14.60;99.90;;;;;;5054836;28;20186;-72
2023/05/13 00:43:36;;;;;;;16.90;13.25;;;14.60;99.90;;;;;;5052602;28;20201;-72
2023/05/13 00:46:03;;;;;;;15.98;13.93;;;14.60;99.90;;;;;;5052115;28;20201;-72
2023/05/13 00:48:28;;;;;;;18.73;14.10;;;14.60;99.90;;;;;;5053831;28;20220;-72
2023/05/13 00:50:54;;;;;;;18.17;14.30;;;14.60;99.90;;;;;;5041698;28;20194;-73
2023/05/13 00:53:20;;;;;;;21.45;14.02;;;14.60;99.90;;;;;;5055016;28;20600;-73
2023/05/13 00:55:46;;;;;;;20.05;14.52;;;14.60;99.90;;;;;;5053109;28;20189;-73
2023/05/13 00:58:12;;;;;;;18.95;13.45;;;14.60;99.90;;;;;;5054426;28;20186;-72
2023/05/13 01:00:50;;;;;;;21.52;15.40;;;14.60;99.90;;;;;;5054186;28;20217;-72
2023/05/13 01:03:53;;;;;;;18.35;15.45;;;14.60;99.90;;;;;;5042908;28;20215;-73
2023/05/13 01:06:35;;;;;;;20.40;14.15;;;14.60;99.90;;;;;;5049142;28;20196;-73
2023/05/13 01:09:15;;;;;;;23.80;16.80;;;14.50;99.90;;;;;;5042605;28;20590;-73
2023/05/13 01:11:41;;;;;;;26.40;18.08;;;14.50;99.90;;;;;;5051924;28;20185;-73
2023/05/13 01:14:21;;;;;;;18.50;15.27;;;14.50;99.90;;;;;;5039558;28;20190;-73
2023/05/13 01:17:11;;;;;;;20.50;14.70;;;14.50;99.90;;;;;;5053301;28;20213;-73
2023/05/13 01:19:42;;;;;;;18.08;14.68;;;14.50;99.90;;;;;;5054411;28;20229;-72
2023/05/13 01:22:08;;;;;;;22.50;16.13;;;14.50;99.90;;;;;;5042948;28;20205;-72
2023/05/13 01:24:34;;;;;;;17.38;14.35;;;14.50;99.90;;;;;;5049401;28;20734;-72
2023/05/13 01:27:00;;;;;;;21.25;14.57;;;14.50;99.90;;;;;;5081311;28;20248;-72
2023/05/13 01:29:26;;;;;;;18.95;14.68;;;14.50;99.90;;;;;;5044008;28;20210;-71
2023/05/13 01:31:53;;;;;;;22.15;16.38;;;14.50;99.90;;;;;;5049794;28;20222;-73
2023/05/13 01:34:20;;;;;;;21.52;16.30;;;14.60;99.90;;;;;;5054017;28;20632;-73
2023/05/13 01:36:47;;;;;;;19.42;14.88;;;14.60;99.90;;;;;;5053829;28;20186;-73
2023/05/13 01:39:13;;;;;;;20.10;15.20;;;14.60;99.90;;;;;;5051026;28;20277;-73
2023/05/13 01:41:38;;;;;;;19.92;15.30;;;14.60;99.90;;;;;;5053186;28;20273;-73
2023/05/13 01:44:05;;;;;;;23.25;16.13;;;14.50;99.90;;;;;;5053686;28;20214;-73
2023/05/13 01:46:30;;;;;;;20.60;14.35;;;14.50;99.90;;;;;;5051417;28;20686;-75
2023/05/13 01:48:56;;;;;;;19.67;15.15;;;14.50;99.90;;;;;;5075238;28;20174;-73
2023/05/13 01:51:22;;;;;;;18.65;13.65;;;14.50;99.90;;;;;;5052924;28;20673;-73
2023/05/13 01:53:47;;;;;;;22.30;15.85;;;14.50;99.90;;;;;;5058235;28;20197;-73
2023/05/13 01:56:13;;;;;;;19.10;14.25;;;14.50;99.90;;;;;;5053764;28;20182;-73
2023/05/13 01:58:39;;;;;;;22.02;16.83;;;14.50;99.90;;;;;;5051423;28;20235;-72
2023/05/13 02:01:04;;;;;;;23.45;16.42;;;14.50;99.90;;;;;;5051603;28;20277;-73
2023/05/13 02:03:30;;;;;;;19.70;14.60;;;14.50;99.90;;;;;;5045068;28;20296;-76
2023/05/13 02:05:55;;;;;;;21.75;14.68;;;14.50;99.90;;;;;;5072362;28;20663;-72
2023/05/13 02:08:22;;;;;;;17.80;14.75;;;14.50;99.90;;;;;;5085698;28;20646;-72
2023/05/13 02:10:57;;;;;;;19.08;14.40;;;14.50;99.90;;;;;;5046887;28;20183;-73
2023/05/13 02:13:23;;;;;;;19.98;14.93;;;14.50;99.90;;;;;;5046524;28;20186;-72
2023/05/13 02:15:49;;;;;;;19.75;14.68;;;14.50;99.90;;;;;;5044022;28;20197;-72
2023/05/13 02:18:15;;;;;;;18.17;15.02;;;14.50;99.90;;;;;;5052795;28;20174;-76
2023/05/13 02:20:40;;;;;;;22.85;15.25;;;14.40;99.90;;;;;;5045797;28;20286;-72
2023/05/13 02:23:06;;;;;;;21.42;15.20;;;14.40;99.90;;;;;;5049486;28;20185;-72
2023/05/13 02:25:32;;;;;;;22.52;14.63;;;14.40;99.90;;;;;;5052575;28;20224;-72
2023/05/13 02:27:58;;;;;;;18.63;14.07;;;14.40;99.90;;;;;;5050637;28;20547;-72
2023/05/13 02:30:27;;;;;;;17.52;14.20;;;14.50;99.90;;;;;;5051002;28;20186;-72
2023/05/13 02:32:55;;;;;;;20.60;15.57;;;14.40;99.90;;;;;;5046677;28;20186;-76
2023/05/13 02:35:21;;;;;;;21.60;15.15;;;14.40;99.90;;;;;;5048819;28;20195;-76
2023/05/13 02:37:47;;;;;;;17.52;14.00;;;14.40;99.90;;;;;;5082569;28;20178;-77
2023/05/13 02:40:13;;;;;;;20.48;14.95;;;14.40;99.90;;;;;;5079356;28;20559;-77
2023/05/13 02:42:39;;;;;;;19.92;14.98;;;14.40;99.90;;;;;;5048475;28;20204;-77
2023/05/13 02:45:06;;;;;;;20.40;15.45;;;14.40;99.90;;;;;;5040864;28;20206;-77
2023/05/13 02:47:31;;;;;;;21.75;16.92;;;14.40;99.90;;;;;;5048818;28;20186;-77
2023/05/13 02:49:57;;;;;;;22.33;15.35;;;14.40;99.90;;;;;;5038370;28;20264;-77
2023/05/13 02:52:23;;;;;;;21.30;15.23;;;14.40;99.90;;;;;;5063113;28;20205;-77
2023/05/13 02:54:48;;;;;;;23.65;16.63;;;14.30;99.90;;;;;;5064579;28;20186;-77
2023/05/13 02:57:15;;;;;;;23.83;17.23;;;14.40;99.90;;;;;;5047491;28;20741;-77
2023/05/13 02:59:40;;;;;;;23.15;17.23;;;14.30;99.90;;;;;;5047519;28;20244;-77
2023/05/13 03:02:06;;;;;;;22.15;17.00;;;14.30;99.90;;;;;;5077764;28;20268;-77
2023/05/13 03:04:32;;;;;;;23.77;17.60;;;14.40;99.90;;;;;;5050554;28;20295;-77
2023/05/13 03:06:57;;;;;;;23.92;17.40;;;14.40;99.90;;;;;;5047574;28;20179;-77
2023/05/13 03:09:23;;;;;;;21.73;16.58;;;14.30;99.90;;;;;;5047871;28;20194;-77
2023/05/13 03:11:49;;;;;;;28.10;20.13;;;14.30;99.90;;;;;;5047726;28;20520;-78
2023/05/13 03:14:15;;;;;;;22.90;18.05;;;14.30;99.90;;;;;;5046858;28;20190;-77
2023/05/13 03:16:40;;;;;;;24.33;18.15;;;14.30;99.90;;;;;;5084138;28;20643;-77
2023/05/13 03:19:06;;;;;;;24.38;17.63;;;14.30;99.90;;;;;;5047174;28;20687;-78
2023/05/13 03:21:32;;;;;;;22.95;18.70;;;14.30;99.90;;;;;;5047413;28;20197;-78
2023/05/13 03:23:57;;;;;;;23.98;18.55;;;14.30;99.90;;;;;;5052425;28;20297;-77
2023/05/13 03:26:23;;;;;;;23.70;17.42;;;14.30;99.90;;;;;;5051938;28;20225;-77
2023/05/13 03:28:48;;;;;;;23.85;17.52;;;14.20;99.90;;;;;;5050831;28;20236;-77
2023/05/13 03:31:14;;;;;;;20.60;17.23;;;14.20;99.90;;;;;;5061179;28;20710;-78
2023/05/13 03:33:40;;;;;;;19.95;16.15;;;14.20;99.90;;;;;;5040927;28;20252;-77
2023/05/13 03:36:06;;;;;;;20.77;16.83;;;14.10;99.90;;;;;;5085004;28;20661;-77
2023/05/13 03:38:31;;;;;;;25.65;16.63;;;14.00;99.90;;;;;;5034524;28;20194;-78
2023/05/13 03:40:57;;;;;;;20.75;16.65;;;14.00;99.90;;;;;;5084601;28;20212;-78
2023/05/13 03:43:23;;;;;;;19.65;15.73;;;14.00;99.90;;;;;;5082948;28;20717;-77
2023/05/13 03:45:50;;;;;;;21.80;15.55;;;13.90;99.90;;;;;;5050706;28;20262;-78
2023/05/13 03:48:16;;;;;;;22.63;16.70;;;13.80;99.90;;;;;;5077471;28;20226;-77
2023/05/13 03:50:42;;;;;;;20.67;16.10;;;13.80;99.90;;;;;;5049077;28;20219;-78
2023/05/13 03:53:09;;;;;;;23.15;16.35;;;13.70;99.90;;;;;;5051159;28;20182;-78
2023/05/13 03:55:35;;;;;;;23.67;17.45;;;13.70;99.90;;;;;;5051972;28;20189;-78
2023/05/13 03:58:11;;;;;;;21.73;15.93;;;13.70;99.90;;;;;;5044489;28;20194;-78
2023/05/13 04:00:37;;;;;;;25.45;15.88;;;13.70;99.90;;;;;;5084293;28;20647;-77
2023/05/13 04:03:03;;;;;;;24.42;17.33;;;13.60;99.90;;;;;;5051643;28;20210;-77
2023/05/13 04:05:28;;;;;;;20.60;16.02;;;13.70;99.90;;;;;;5019756;28;20284;-77
2023/05/13 04:07:54;;;;;;;21.95;15.30;;;13.60;99.90;;;;;;5078944;28;20646;-78
2023/05/13 04:10:20;;;;;;;22.48;16.50;;;13.60;99.90;;;;;;5055540;28;20654;-78
2023/05/13 04:12:45;;;;;;;22.35;15.80;;;13.50;99.90;;;;;;5053325;28;20182;-77
2023/05/13 04:15:11;;;;;;;22.50;17.02;;;13.50;99.90;;;;;;5043420;28;20236;-77
2023/05/13 04:17:36;;;;;;;20.70;16.55;;;13.50;99.90;;;;;;5046681;28;20190;-77
2023/05/13 04:20:02;;;;;;;21.67;16.63;;;13.50;99.90;;;;;;5087496;28;20238;-78
2023/05/13 04:22:28;;;;;;;20.40;15.45;;;13.60;99.90;;;;;;5049563;28;20546;-77
2023/05/13 04:24:55;;;;;;;22.52;15.95;;;13.60;99.90;;;;;;5038939;28;20615;-77
2023/05/13 04:27:22;;;;;;;20.75;16.23;;;13.70;99.90;;;;;;5044339;28;20228;-78
2023/05/13 04:29:49;;;;;;;21.67;15.02;;;13.70;99.90;;;;;;5053448;28;20580;-78
2023/05/13 04:32:20;;;;;;;20.17;16.08;;;13.80;99.90;;;;;;5065595;28;20281;-78
2023/05/13 04:34:46;;;;;;;21.27;15.57;;;13.80;99.90;;;;;;5070468;28;20191;-78
2023/05/13 04:37:12;;;;;;;23.67;16.83;;;13.90;99.90;;;;;;5051763;28;20235;-78
2023/05/13 04:39:38;;;;;;;20.77;16.13;;;14.00;99.90;;;;;;5052594;28;20685;-78
2023/05/13 04:42:03;;;;;;;21.98;16.40;;;14.10;99.90;;;;;;5054713;28;20206;-78
2023/05/13 04:44:29;;;;;;;21.40;16.63;;;14.20;99.90;;;;;;5053794;28;20691;-78
2023/05/13 04:46:55;;;;;;;21.38;14.52;;;14.20;99.90;;;;;;5043103;28;20210;-78
2023/05/13 04:49:20;;;;;;;17.17;14.48;;;14.30;99.90;;;;;;5074623;28;20558;-78
2023/05/13 04:51:46;;;;;;;19.95;14.98;;;14.30;99.90;;;;;;5046896;28;20601;-77
2023/05/13 04:54:11;;;;;;;21.17;14.98;;;14.40;99.90;;;;;;5052180;28;20635;-77
2023/05/13 04:56:37;;;;;;;19.80;13.20;;;14.60;99.90;;;;;;5053021;28;20212;-77
2023/05/13 04:59:03;;;;;;;18.25;14.27;;;14.60;99.90;;;;;;5049738;28;20383;-77
2023/05/13 05:01:28;;;;;;;20.98;12.85;;;14.60;99.90;;;;;;5042296;28;20217;-77
2023/05/13 05:03:54;;;;;;;17.10;12.38;;;14.80;99.90;;;;;;5049282;28;20225;-77
2023/05/13 05:06:20;;;;;;;14.75;11.13;;;14.90;99.90;;;;;;5053027;28;20646;-77
2023/05/13 05:08:46;;;;;;;18.52;12.50;;;15.00;99.90;;;;;;5054225;28;20201;-76
2023/05/13 05:11:12;;;;;;;26.60;12.60;;;15.00;99.90;;;;;;5036250;28;20190;-78
2023/05/13 05:13:37;;;;;;;14.75;12.13;;;15.10;99.90;;;;;;5087086;28;20187;-77
2023/05/13 05:16:03;;;;;;;14.40;12.15;;;15.20;99.90;;;;;;5051826;28;20269;-77
2023/05/13 05:18:29;;;;;;;13.23;11.15;;;15.30;99.90;;;;;;5040278;28;20186;-77
2023/05/13 05:20:54;;;;;;;12.88;10.25;;;15.20;99.90;;;;;;5049351;28;20198;-78
2023/05/13 05:23:20;;;;;;;12.07;9.80;;;15.10;99.90;;;;;;5045015;28;20270;-77
2023/05/13 05:25:46;;;;;;;13.50;10.35;;;15.20;99.90;;;;;;5047784;28;20646;-79
2023/05/13 05:28:12;;;;;;;13.07;9.85;;;15.30;99.90;;;;;;5053399;28;20269;-76
2023/05/13 05:30:38;;;;;;;14.93;9.82;;;15.40;99.90;;;;;;5053847;28;20265;-78
2023/05/13 05:33:05;;;;;;;12.38;10.10;;;15.50;99.90;;;;;;5044357;28;20272;-77
2023/05/13 05:35:32;;;;;;;10.23;9.02;;;15.50;99.90;;;;;;5038599;28;20186;-77
2023/05/13 05:37:58;;;;;;;10.98;8.95;;;15.60;99.90;;;;;;5053070;28;20182;-77
2023/05/13 05:40:23;;;;;;;11.35;9.15;;;15.60;99.90;;;;;;5051044;28;20236;-77
2023/05/13 05:42:49;;;;;;;12.23;10.82;;;15.60;99.90;;;;;;5054345;28;20248;-77
2023/05/13 05:45:15;;;;;;;12.80;9.88;;;15.50;99.90;;;;;;5050777;28;20245;-77
2023/05/13 05:47:40;;;;;;;13.75;9.82;;;15.60;99.90;;;;;;5040956;28;20273;-77
2023/05/13 05:50:06;;;;;;;11.43;9.52;;;15.60;99.90;;;;;;5033427;28;20195;-76
2023/05/13 05:52:32;;;;;;;11.35;9.68;;;15.60;99.90;;;;;;5050613;28;20186;-77
2023/05/13 05:54:58;;;;;;;12.40;10.23;;;15.70;99.90;;;;;;5053815;28;20189;-76
2023/05/13 05:57:23;;;;;;;11.75;9.32;;;15.70;99.90;;;;;;5086032;28;20194;-76
2023/05/13 05:59:50;;;;;;;11.30;10.10;;;15.70;99.90;;;;;;5047585;28;20183;-76
2023/05/13 06:02:15;;;;;;;12.88;9.85;;;15.80;99.90;;;;;;5036987;28;20191;-76
2023/05/13 06:04:41;;;;;;;13.30;11.68;;;15.90;99.90;;;;;;5054045;28;20259;-77
2023/05/13 06:07:07;;;;;;;12.13;9.98;;;16.00;99.90;;;;;;5051615;28;20190;-77
2023/05/13 06:09:33;;;;;;;11.38;9.82;;;15.90;99.90;;;;;;5052943;28;20277;-77
2023/05/13 06:11:59;;;;;;;14.05;10.32;;;15.90;99.90;;;;;;5053629;28;20213;-77
2023/05/13 06:14:25;;;;;;;11.43;9.98;;;16.00;99.90;;;;;;5044152;28;20672;-77
2023/05/13 06:16:50;;;;;;;14.85;9.18;;;16.00;99.90;;;;;;5048058;28;20210;-77
2023/05/13 06:19:16;;;;;;;14.07;10.93;;;16.20;99.90;;;;;;5053440;28;20309;-77
2023/05/13 06:21:42;;;;;;;10.45;8.63;;;16.50;99.90;;;;;;5048455;28;20541;-77
2023/05/13 06:24:08;;;;;;;14.75;10.00;;;16.60;99.90;;;;;;5042959;28;20327;-77
2023/05/13 06:26:34;;;;;;;9.93;9.00;;;16.80;99.90;;;;;;5049584;28;20191;-77
2023/05/13 06:28:59;;;;;;;12.32;9.70;;;17.10;99.90;;;;;;5044375;28;20186;-78
2023/05/13 06:31:25;;;;;;;10.38;9.10;;;17.20;99.90;;;;;;5031592;28;20277;-78
2023/05/13 06:33:51;;;;;;;10.40;8.45;;;17.20;99.90;;;;;;5044489;28;20186;-78
2023/05/13 06:36:17;;;;;;;10.13;9.00;;;17.50;99.90;;;;;;5049405;28;20190;-77
2023/05/13 06:38:42;;;;;;;15.40;10.52;;;17.80;99.90;;;;;;5052588;28;20197;-77
2023/05/13 06:41:08;;;;;;;10.73;9.60;;;17.40;99.90;;;;;;5050754;28;20600;-76
2023/05/13 06:43:34;;;;;;;8.82;7.50;;;17.50;99.90;;;;;;5062588;28;20193;-79
2023/05/13 06:45:59;;;;;;;10.13;9.10;;;17.80;99.90;;;;;;5039378;28;20277;-77
2023/05/13 06:48:25;;;;;;;12.95;9.32;;;18.00;99.90;;;;;;5049523;28;20232;-76
2023/05/13 06:50:51;;;;;;;10.15;8.90;;;18.20;99.90;;;;;;5049223;28;20235;-76
2023/05/13 06:53:17;;;;;;;12.23;9.27;;;18.00;99.90;;;;;;5052700;28;20642;-76
2023/05/13 06:55:42;;;;;;;9.70;7.95;;;17.90;99.90;;;;;;5046371;28;20186;-77
2023/05/13 06:58:09;;;;;;;11.35;7.95;;;18.10;99.90;;;;;;5051141;28;20551;-76
2023/05/13 07:00:39;;;;;;;9.13;8.15;;;18.30;99.90;;;;;;5049729;28;20196;-77
2023/05/13 07:03:08;;;;;;;10.18;8.32;;;18.40;99.90;;;;;;5052495;28;20218;-77
2023/05/13 07:05:34;;;;;;;10.65;8.82;;;18.30;99.90;;;;;;5081251;28;20205;-79
2023/05/13 07:08:05;;;;;;;11.40;8.75;;;18.60;99.90;;;;;;5050342;28;20264;-77
2023/05/13 07:10:31;;;;;;;10.05;8.95;;;18.50;99.90;;;;;;5035587;28;20193;-78
2023/05/13 07:12:57;;;;;;;13.70;9.65;;;18.90;99.90;;;;;;5051208;28;20190;-79
2023/05/13 07:15:23;;;;;;;9.82;8.45;;;18.90;99.90;;;;;;5050949;28;20546;-76
2023/05/13 07:17:48;;;;;;;11.45;8.60;;;19.10;99.90;;;;;;5052276;28;20567;-76
2023/05/13 07:20:15;;;;;;;9.65;8.68;;;19.20;99.90;;;;;;5039215;28;20229;-79
2023/05/13 07:22:40;;;;;;;10.82;8.65;;;19.20;99.90;;;;;;5050210;28;20629;-78
2023/05/13 07:25:06;;;;;;;10.02;8.52;;;19.60;99.90;;;;;;5050116;28;20241;-79
2023/05/13 07:27:32;;;;;;;9.23;8.02;;;19.80;99.90;;;;;;5030761;28;20191;-78
2023/05/13 07:29:57;;;;;;;10.38;7.60;;;20.50;99.90;;;;;;5046767;28;20217;-79
2023/05/13 07:32:23;;;;;;;9.75;8.75;;;21.10;99.90;;;;;;5049305;28;20269;-78
2023/05/13 07:34:49;;;;;;;11.25;8.38;;;21.50;99.90;;;;;;5078548;28;20189;-78
2023/05/13 07:37:14;;;;;;;9.07;8.00;;;22.50;99.90;;;;;;5055478;28;20195;-78
2023/05/13 07:39:40;;;;;;;8.93;6.75;;;24.60;99.90;;;;;;5046039;28;20636;-74
2023/05/13 07:42:06;;;;;;;10.35;6.82;;;26.20;99.90;;;;;;5086859;28;20177;-73
2023/05/13 07:44:31;;;;;;;12.68;8.27;;;27.20;99.90;;;;;;5054790;28;20553;-73
2023/05/13 07:46:57;;;;;;;7.22;6.53;;;27.70;99.90;;;;;;5054574;28;21201;-76
2023/05/13 07:49:23;;;;;;;8.25;7.40;;;28.50;99.90;;;;;;5043137;28;20181;-82
2023/05/13 07:51:49;;;;;;;7.97;6.03;;;29.10;99.90;;;;;;5049326;28;20189;-84
2023/05/13 07:54:15;;;;;;;9.88;6.65;;;29.20;99.90;;;;;;5045333;28;20211;-81
2023/05/13 07:56:42;;;;;;;8.18;7.38;;;29.90;99.90;;;;;;5055831;28;20186;-84
2023/05/13 07:59:08;;;;;;;9.45;7.20;;;29.50;99.90;;;;;;5052065;28;20186;-76
2023/05/13 08:01:34;;;;;;;7.68;6.90;;;29.40;99.90;;;;;;5051763;28;20189;-86
2023/05/13 08:04:00;;;;;;;6.90;6.30;;;29.00;99.90;;;;;;5084251;28;20228;-79
2023/05/13 08:06:26;;;;;;;7.47;6.78;;;29.40;99.90;;;;;;5052327;28;20186;-86
2023/05/13 08:08:51;;;;;;;8.05;7.25;;;29.40;99.90;;;;;;5059325;28;20627;-80
2023/05/13 08:11:17;;;;;;;8.35;7.32;;;29.40;99.90;;;;;;5053049;28;20328;-86
2023/05/13 08:13:42;;;;;;;9.60;6.80;;;29.40;99.90;;;;;;5039100;28;20186;-84
2023/05/13 08:16:08;;;;;;;10.07;8.90;;;29.40;99.90;;;;;;5053189;28;20190;-83
2023/05/13 08:18:34;;;;;;;10.23;6.78;;;29.30;99.90;;;;;;5029277;28;20726;-78
2023/05/13 08:21:00;;;;;;;7.32;6.38;;;28.90;99.90;;;;;;5058250;28;20207;-76
2023/05/13 08:23:25;;;;;;;11.38;6.97;;;28.80;99.90;;;;;;5064043;28;20197;-75
2023/05/13 08:25:51;;;;;;;7.63;6.93;;;29.10;99.90;;;;;;5057921;28;20185;-79
2023/05/13 08:28:16;;;;;;;5.90;5.40;;;29.90;99.90;;;;;;5058342;28;20718;-77
2023/05/13 08:30:43;;;;;;;7.55;6.72;;;30.40;99.90;;;;;;5059351;28;20234;-76
2023/05/13 08:33:12;;;;;;;6.70;6.00;;;29.90;99.90;;;;;;5063021;28;20185;-78
2023/05/13 08:35:38;;;;;;;7.88;7.07;;;29.30;99.90;;;;;;5054489;28;20192;-74
2023/05/13 08:38:04;;;;;;;11.07;7.50;;;29.80;99.90;;;;;;5045129;28;20549;-81
2023/05/13 08:40:31;;;;;;;8.32;7.45;;;29.60;99.90;;;;;;5054797;28;20203;-79
2023/05/13 08:43:02;;;;;;;10.32;7.18;;;29.30;99.90;;;;;;5061885;28;20185;-73
2023/05/13 08:45:30;;;;;;;9.82;7.38;;;28.70;99.90;;;;;;5057495;28;20719;-82
2023/05/13 08:47:59;;;;;;;8.65;7.75;;;29.20;99.90;;;;;;5053404;28;20195;-82
2023/05/13 08:50:27;;;;;;;8.23;7.28;;;29.40;99.90;;;;;;5054846;28;20180;-79
2023/05/13 08:52:52;;;;;;;10.30;7.00;;;29.30;99.90;;;;;;5055132;28;20182;-81
2023/05/13 08:55:19;;;;;;;7.32;6.63;;;29.50;99.90;;;;;;5049292;28;20523;-85
2023/05/13 08:57:44;;;;;;;7.97;7.20;;;30.20;99.90;;;;;;5053353;28;20178;-78
2023/05/13 09:00:10;;;;;;;7.30;6.60;;;30.20;99.90;;;;;;5053860;28;20197;-82
2023/05/13 09:02:36;;;;;;;8.77;7.88;;;29.80;99.90;;;;;;5054771;28;20553;-79
2023/05/13 09:05:08;;;;;;;9.57;7.57;;;30.00;99.90;;;;;;5054539;28;20216;-79
2023/05/13 09:07:35;;;;;;;8.70;7.82;;;29.80;99.90;;;;;;5049008;28;20181;-79
2023/05/13 09:10:02;;;;;;;8.75;7.78;;;28.70;99.90;;;;;;5050085;28;20533;-80
2023/05/13 09:12:48;;;;;;;8.02;7.22;;;28.40;99.90;;;;;;5053323;28;20264;-78
2023/05/13 09:15:18;;;;;;;8.15;7.25;;;28.00;99.90;;;;;;5054356;28;20189;-82
2023/05/13 09:17:48;;;;;;;9.13;7.80;;;28.20;99.90;;;;;;5047325;28;20188;-84
2023/05/13 09:20:16;;;;;;;8.85;8.05;;;27.60;99.90;;;;;;5051458;28;20346;-81
2023/05/13 09:22:46;;;;;;;13.07;8.25;;;26.10;99.90;;;;;;5056546;28;20185;-82
2023/05/13 09:25:13;;;;;;;8.98;8.15;;;24.80;99.90;;;;;;5054236;28;20674;-75
2023/05/13 09:27:42;;;;;;;9.55;8.50;;;24.30;99.90;;;;;;5053212;28;20196;-82
2023/05/13 09:30:08;;;;;;;10.48;8.65;;;23.20;99.90;;;;;;5053197;28;20182;-81
2023/05/13 09:32:34;;;;;;;10.15;8.48;;;22.50;99.90;;;;;;5047647;28;20715;-78
2023/05/13 09:35:17;;;;;;;11.20;9.98;;;22.20;99.90;;;;;;5053140;28;20285;-85
2023/05/13 09:37:47;;;;;;;11.15;9.45;;;21.90;99.90;;;;;;5054592;28;20261;-82
2023/05/13 09:40:15;;;;;;;11.68;9.00;;;21.90;99.90;;;;;;5050187;28;20277;-83
2023/05/13 09:42:45;;;;;;;9.63;8.63;;;21.90;99.90;;;;;;5039504;28;20175;-84
2023/05/13 09:45:15;;;;;;;10.45;9.20;;;21.80;99.90;;;;;;5051121;28;20210;-83
2023/05/13 09:47:41;;;;;;;12.82;10.35;;;21.70;99.90;;;;;;5046324;28;20209;-83
2023/05/13 09:50:09;;;;;;;11.65;10.25;;;21.50;99.90;;;;;;5054140;28;20193;-81
2023/05/13 09:52:36;;;;;;;11.75;9.77;;;21.50;99.90;;;;;;5044682;28;20178;-83
2023/05/13 09:55:04;;;;;;;10.13;9.07;;;21.60;99.90;;;;;;5054053;28;20273;-74
2023/05/13 09:57:32;;;;;;;10.70;9.48;;;21.60;99.90;;;;;;5052201;28;20178;-73
2023/05/13 10:00:00;;;;;;;13.23;9.18;;;21.80;99.90;;;;;;5049190;28;20190;-73
2023/05/13 10:02:27;;;;;;;14.68;9.63;;;22.10;99.90;;;;;;5043771;28;20190;-74
2023/05/13 10:04:57;;;;;;;9.65;8.68;;;22.30;99.90;;;;;;5048000;28;20267;-74
2023/05/13 10:07:24;;;;;;;13.27;10.27;;;22.50;99.90;;;;;;5043718;28;20196;-83
2023/05/13 10:09:57;;;;;;;10.10;9.02;;;22.60;99.90;;;;;;5054270;28;20543;-73
2023/05/13 10:12:27;;;;;;;11.57;10.15;;;22.50;99.90;;;;;;5052119;28;20178;-76
2023/05/13 10:14:54;;;;;;;9.65;8.65;;;22.60;99.90;;;;;;5054708;28;20198;-76
2023/05/13 10:17:24;;;;;;;9.75;7.85;;;22.60;99.90;;;;;;5052335;28;20236;-76
2023/05/13 10:19:57;;;;;;;9.07;8.18;;;22.50;99.90;;;;;;5144831;27;20294;-80
2023/05/13 10:22:28;;;;;;;11.68;8.90;;;22.60;99.90;;;;;;5125823;28;20209;-77
2023/05/13 10:24:58;;;;;;;12.40;9.60;;;22.50;99.90;;;;;;5130700;28;20182;-70
2023/05/13 10:27:27;;;;;;;10.85;9.48;;;22.30;99.90;;;;;;5130431;28;20179;-76
2023/05/13 10:29:54;;;;;;;10.25;9.23;;;22.30;99.90;;;;;;5098669;28;20588;-73
2023/05/13 10:32:25;;;;;;;11.52;9.35;;;22.40;99.90;;;;;;5127775;28;20179;-72
2023/05/13 10:35:20;;;;;;;10.32;9.27;;;22.50;99.90;;;;;;5123997;28;20183;-73
2023/05/13 10:38:07;;;;;;;13.00;8.70;;;22.40;99.90;;;;;;5103322;28;20191;-73
2023/05/13 10:40:51;;;;;;;13.25;9.50;;;22.30;99.90;;;;;;5127744;28;20176;-74
2023/05/13 10:43:25;;;;;;;9.70;8.32;;;22.30;99.90;;;;;;5130517;28;20183;-74
2023/05/13 10:46:01;;;;;;;13.07;8.82;;;22.10;99.90;;;;;;5130146;28;20204;-75
2023/05/13 10:48:39;;;;;;;11.18;9.93;;;21.90;99.90;;;;;;5129500;28;20179;-73
2023/05/13 10:51:06;;;;;;;12.98;8.60;;;21.90;99.90;;;;;;5125210;28;20295;-75
2023/05/13 10:53:46;;;;;;;12.40;10.20;;;22.10;99.90;;;;;;5105802;28;20205;-75
2023/05/13 10:56:12;;;;;;;14.60;10.75;;;22.10;99.90;;;;;;5128855;28;20179;-75
2023/05/13 10:58:38;;;;;;;10.32;9.23;;;22.10;99.90;;;;;;5122564;28;20616;-72
2023/05/13 11:01:37;;;;;;;9.30;8.40;;;22.20;99.90;;;;;;5125418;28;20268;-70
2023/05/13 11:04:04;;;;;;;10.23;8.68;;;22.30;99.90;;;;;;5129014;28;20179;-71
2023/05/13 11:06:35;;;;;;;10.43;8.90;;;22.30;99.90;;;;;;5129900;28;20186;-70
2023/05/13 11:09:05;;;;;;;10.25;7.82;;;22.40;99.90;;;;;;5125758;28;20210;-73
2023/05/13 11:11:33;;;;;;;9.57;8.43;;;22.50;99.90;;;;;;5089798;28;20199;-71
2023/05/13 11:13:58;;;;;;;8.68;7.80;;;22.70;99.90;;;;;;5127511;28;20186;-70
2023/05/13 11:16:24;;;;;;;11.65;8.23;;;22.70;99.90;;;;;;5128646;28;20183;-76
2023/05/13 11:18:51;;;;;;;9.63;8.63;;;22.50;99.90;;;;;;5102617;28;20326;-70
2023/05/13 11:21:28;;;;;;;9.07;8.20;;;22.50;99.90;;;;;;5125415;28;20180;-70
2023/05/13 11:24:04;;;;;;;12.20;8.00;;;22.60;99.90;;;;;;5128494;28;20548;-67
2023/05/13 11:26:45;;;;;;;11.05;8.18;;;22.60;99.90;;;;;;5125675;28;20219;-67
2023/05/13 11:29:11;;;;;;;11.65;9.38;;;22.50;99.90;;;;;;5094554;28;20202;-69
2023/05/13 11:31:48;;;;;;;8.90;8.00;;;22.60;99.90;;;;;;5104020;28;20563;-68
2023/05/13 11:34:19;;;;;;;9.48;8.30;;;22.60;99.90;;;;;;5106098;28;20592;-69
2023/05/13 11:36:47;;;;;;;9.55;8.65;;;22.50;99.90;;;;;;5106057;28;20594;-68
2023/05/13 11:39:14;;;;;;;9.63;8.68;;;22.70;99.90;;;;;;5114604;28;20211;-69
2023/05/13 11:41:45;;;;;;;10.82;8.50;;;22.80;99.90;;;;;;5105038;28;20184;-70
2023/05/13 11:44:16;;;;;;;9.63;7.50;;;23.00;99.90;;;;;;5109004;28;20638;-70
2023/05/13 11:46:56;;;;;;;8.93;7.20;;;23.00;99.90;;;;;;5096807;28;20266;-69
2023/05/13 11:49:49;;;;;;;7.05;6.25;;;23.00;99.90;;;;;;5109985;28;20267;-68
2023/05/13 11:52:18;;;;;;;8.38;7.57;;;22.90;99.90;;;;;;5111049;28;20197;-69
2023/05/13 11:54:52;;;;;;;9.23;6.10;;;22.70;99.90;;;;;;5115232;28;20188;-69
2023/05/13 11:57:17;;;;;;;7.95;7.20;;;22.60;99.90;;;;;;5112696;28;20176;-69
2023/05/13 11:59:55;;;;;;;9.05;7.60;;;22.70;99.90;;;;;;5110893;28;20214;-68
2023/05/13 12:02:28;;;;;;;8.02;7.22;;;23.00;99.90;;;;;;5115281;28;20198;-69
2023/05/13 12:04:55;;;;;;;9.65;7.18;;;23.10;99.90;;;;;;5115049;28;20257;-69
2023/05/13 12:07:22;;;;;;;6.88;6.28;;;23.00;99.90;;;;;;5107221;28;20668;-69
2023/05/13 12:09:50;;;;;;;7.78;6.82;;;23.20;99.90;;;;;;5090316;28;20187;-71
2023/05/13 12:12:16;;;;;;;7.28;6.57;;;23.10;99.90;;;;;;5112294;28;20172;-74
2023/05/13 12:14:45;;;;;;;8.25;7.45;;;23.00;99.90;;;;;;5114909;28;20225;-67
2023/05/13 12:17:14;;;;;;;7.50;6.68;;;23.00;99.90;;;;;;5108200;28;20192;-69
2023/05/13 12:19:59;;;;;;;8.65;7.75;;;23.00;99.90;;;;;;5102474;28;20232;-67
2023/05/13 12:22:25;;;;;;;10.82;8.43;;;23.00;99.90;;;;;;5114026;28;20184;-69
2023/05/13 12:24:50;;;;;;;8.50;7.70;;;22.60;99.90;;;;;;5113852;28;20184;-69
2023/05/13 12:27:16;;;;;;;8.30;7.07;;;22.60;99.90;;;;;;5113030;28;20190;-70
2023/05/13 12:29:42;;;;;;;8.02;7.22;;;22.80;99.90;;;;;;5113528;28;20289;-73
2023/05/13 12:32:10;;;;;;;25.98;18.83;;;22.90;99.90;;;;;;5090637;28;20203;-72
2023/05/13 12:34:37;;;;;;;14.38;9.77;;;22.90;99.90;;;;;;5114702;28;21063;-71
2023/05/13 12:37:11;;;;;;;8.35;7.55;;;23.10;99.90;;;;;;5113759;28;20190;-68
2023/05/13 12:39:37;;;;;;;8.32;7.20;;;23.20;99.90;;;;;;5114519;28;20337;-72